Time;durP1;ratioP1;P1;durP2;ratioP2;P2;SDS_P1;SDS_P2;PMS_P1;PMS_P2;Temp;Humidity;BMP_temperature;BMP_pressure;BME280_temperature;BME280_humidity;BME280_pressure;Samples;Min_cycle;Max_cycle;Signal;HPM_P1;HPM_P2
2022/04/28 00:03:33;;;;;;;10.23;6.30;;;;;;;7.38;31.21;101681.16;10162062;29;20217;-87
2022/04/28 00:08:35;;;;;;;9.60;5.80;;;;;;;7.33;30.77;101683.34;10165938;29;20310;-87
2022/04/28 00:13:37;;;;;;;9.97;5.90;;;;;;;7.28;30.72;101690.84;10165295;29;20208;-89
2022/04/28 00:18:40;;;;;;;10.83;6.23;;;;;;;7.29;31.03;101686.84;10164955;29;20232;-83
2022/04/28 00:23:42;;;;;;;13.63;6.33;;;;;;;6.75;31.66;101693.00;10164445;29;20264;-86
2022/04/28 00:28:44;;;;;;;10.10;6.50;;;;;;;6.59;31.97;101687.78;10152307;29;20252;-87
2022/04/28 00:33:48;;;;;;;12.00;7.13;;;;;;;6.56;32.32;101691.28;10161505;29;20216;-85
2022/04/28 00:38:50;;;;;;;10.60;6.20;;;;;;;6.99;31.30;101687.75;10163429;29;20201;-85
2022/04/28 00:43:53;;;;;;;7.87;6.23;;;;;;;6.66;32.05;101695.81;10163002;29;20189;-85
2022/04/28 00:54:16;;;;;;;11.53;7.07;;;;;;;6.44;32.35;101693.84;10148293;29;20288;-85
2022/04/28 00:59:18;;;;;;;11.83;7.10;;;;;;;6.34;32.19;101691.28;10170528;29;20669;-86
2022/04/28 01:04:20;;;;;;;10.17;6.63;;;;;;;6.40;32.24;101692.00;10161468;29;20669;-86
2022/04/28 01:09:23;;;;;;;11.90;6.70;;;;;;;6.30;32.27;101687.44;10162127;29;20197;-86
2022/04/28 01:14:25;;;;;;;10.97;7.10;;;;;;;6.22;32.30;101688.22;10177345;29;20283;-87
2022/04/28 01:19:33;;;;;;;8.80;6.90;;;;;;;6.30;32.07;101698.78;10146970;29;20303;-86
2022/04/28 01:24:37;;;;;;;13.33;7.77;;;;;;;6.05;32.83;101707.97;10176376;29;20252;-81
2022/04/28 01:29:42;;;;;;;11.30;7.33;;;;;;;5.93;32.76;101707.66;10161506;29;20244;-86
2022/04/28 01:34:45;;;;;;;11.13;7.33;;;;;;;6.32;32.02;101710.59;10176642;29;20233;-85
2022/04/28 01:39:47;;;;;;;14.17;7.80;;;;;;;5.50;33.47;101708.97;10161420;29;20272;-83
2022/04/28 01:44:51;;;;;;;10.83;6.93;;;;;;;6.09;32.61;101715.47;10144877;29;20259;-86
2022/04/28 01:49:53;;;;;;;12.30;8.30;;;;;;;6.17;32.13;101728.03;10145689;29;20225;-88
2022/04/28 01:55:11;;;;;;;10.13;7.33;;;;;;;5.72;32.91;101730.84;10122364;29;20268;-85
2022/04/28 02:00:43;;;;;;;16.17;8.30;;;;;;;6.12;32.22;101720.50;10153966;29;20244;-82
2022/04/28 02:05:47;;;;;;;13.07;7.93;;;;;;;6.50;31.87;101714.41;10193739;29;20201;-83
2022/04/28 02:10:50;;;;;;;11.13;7.20;;;;;;;5.34;33.57;101718.97;10163692;29;20204;-86
2022/04/28 02:16:18;;;;;;;12.67;8.43;;;;;;;5.94;32.85;101715.00;10165029;29;20279;-85
2022/04/28 02:21:48;;;;;;;10.60;8.20;;;;;;;5.86;32.79;101720.31;10164729;29;20268;-85
2022/04/28 02:26:51;;;;;;;12.40;7.97;;;;;;;5.66;33.29;101717.13;10160798;29;20479;-86
2022/04/28 02:31:53;;;;;;;12.80;8.23;;;;;;;5.75;32.96;101713.22;10175844;29;20256;-86
2022/04/28 02:36:55;;;;;;;15.10;8.90;;;;;;;5.81;33.13;101726.09;10160310;29;20318;-85
2022/04/28 02:42:00;;;;;;;16.43;8.30;;;;;;;5.65;33.31;101716.28;10160626;29;20204;-85
2022/04/28 02:47:02;;;;;;;12.73;8.40;;;;;;;5.52;33.40;101722.81;10175812;29;20197;-83
2022/04/28 02:52:06;;;;;;;15.53;8.23;;;;;;;5.76;32.86;101716.91;10160176;29;20197;-86
2022/04/28 02:57:09;;;;;;;10.43;7.97;;;;;;;5.61;33.20;101731.38;10164102;29;20224;-83
2022/04/28 03:02:11;;;;;;;16.87;7.73;;;;;;;5.60;33.18;101719.22;10182642;29;20205;-82
2022/04/28 03:12:36;;;;;;;14.47;8.53;;;;;;;5.37;33.30;101720.34;10190056;29;20192;-85
2022/04/28 03:17:46;;;;;;;16.57;8.20;;;;;;;5.45;33.18;101728.91;10181756;29;20224;-85
2022/04/28 03:22:48;;;;;;;11.10;8.07;;;;;;;5.44;33.21;101726.38;10165904;29;20205;-86
2022/04/28 03:27:50;;;;;;;10.87;7.70;;;;;;;5.58;33.19;101724.34;10182719;29;20188;-83
2022/04/28 03:32:54;;;;;;;9.80;7.83;;;;;;;5.50;33.24;101727.94;10180634;29;20228;-82
2022/04/28 03:37:58;;;;;;;11.87;8.27;;;;;;;5.34;33.41;101730.28;10165841;29;20565;-85
2022/04/28 03:43:03;;;;;;;14.60;8.23;;;;;;;4.85;34.15;101736.69;10178793;29;20205;-82
2022/04/28 03:48:08;;;;;;;14.50;8.13;;;;;;;5.28;33.70;101739.19;10172894;29;20542;-86
2022/04/28 03:53:10;;;;;;;14.37;10.80;;;;;;;5.30;33.09;101731.22;10148184;29;20263;-84
2022/04/28 03:58:12;;;;;;;22.97;16.17;;;;;;;5.41;33.15;101732.66;10180395;29;20546;-86
2022/04/28 04:03:15;;;;;;;17.37;12.27;;;;;;;5.46;33.05;101735.41;10148973;29;20279;-84
2022/04/28 04:08:18;;;;;;;20.13;12.17;;;;;;;5.11;33.27;101734.19;10179293;29;20252;-87
2022/04/28 04:13:39;;;;;;;14.17;9.83;;;;;;;4.87;34.11;101740.09;10169913;29;20212;-86
2022/04/28 04:18:41;;;;;;;14.90;8.80;;;;;;;4.96;34.03;101743.84;10167619;29;20237;-81
2022/04/28 04:23:52;;;;;;;19.63;9.70;;;;;;;5.40;33.04;101742.34;10168354;29;20498;-87
2022/04/28 04:28:54;;;;;;;12.73;8.13;;;;;;;5.08;33.63;101741.31;10163797;29;20185;-86
2022/04/28 04:34:16;;;;;;;16.97;9.27;;;;;;;5.09;33.74;101747.81;10146075;29;20284;-84
2022/04/28 04:39:18;;;;;;;16.00;9.67;;;;;;;5.15;33.45;101749.38;10155382;29;20256;-84
2022/04/28 04:44:21;;;;;;;14.20;9.37;;;;;;;4.98;34.35;101752.00;10162076;29;20196;-86
2022/04/28 04:49:23;;;;;;;13.23;9.40;;;;;;;4.95;34.05;101759.13;10160321;29;20200;-86
2022/04/28 04:54:40;;;;;;;13.97;9.40;;;;;;;5.12;33.96;101759.34;10162389;29;20255;-81
2022/04/28 04:59:42;;;;;;;13.17;9.77;;;;;;;4.68;35.04;101767.56;10170306;29;20543;-87
2022/04/28 05:04:45;;;;;;;11.77;9.60;;;;;;;5.46;33.50;101775.84;10157054;29;20216;-81
2022/04/28 05:10:06;;;;;;;15.37;9.20;;;;;;;5.41;33.61;101790.09;10183445;29;20197;-89
2022/04/28 05:15:08;;;;;;;14.37;9.93;;;;;;;5.57;32.88;101787.78;10159198;29;20618;-89
2022/04/28 05:20:18;;;;;;;18.80;9.97;;;;;;;5.47;33.37;101785.19;10165324;29;20228;-89
2022/04/28 05:25:58;;;;;;;18.27;11.27;;;;;;;4.86;34.82;101792.13;10115776;29;20250;-89
2022/04/28 05:31:19;;;;;;;17.03;10.27;;;;;;;5.58;33.40;101795.13;10143369;29;20249;-87
2022/04/28 05:36:46;;;;;;;14.47;10.03;;;;;;;5.55;33.30;101790.09;10162867;29;20224;-89
2022/04/28 05:41:55;;;;;;;15.30;10.83;;;;;;;5.37;33.68;101789.09;10157428;29;20216;-80
2022/04/28 05:46:58;;;;;;;14.70;9.93;;;;;;;5.54;33.34;101791.25;10157700;29;20289;-82
2022/04/28 05:52:01;;;;;;;14.80;10.03;;;;;;;5.41;33.25;101800.59;10173727;29;20196;-86
2022/04/28 05:57:04;;;;;;;14.93;10.20;;;;;;;6.20;32.51;101799.03;10145496;29;20698;-85
2022/04/28 06:02:06;;;;;;;14.47;9.97;;;;;;;5.55;33.48;101809.91;10162597;29;20490;-82
2022/04/28 06:07:10;;;;;;;18.43;9.57;;;;;;;6.09;31.93;101816.63;10180689;29;20240;-90
2022/04/28 06:12:18;;;;;;;15.57;9.57;;;;;;;5.95;32.60;101818.66;10170928;29;20201;-89
2022/04/28 06:17:45;;;;;;;15.43;9.60;;;;;;;6.65;31.84;101823.75;10175258;29;20228;-89
2022/04/28 06:22:48;;;;;;;17.80;10.07;;;;;;;5.92;32.77;101839.16;10158858;29;20236;-85
2022/04/28 06:27:51;;;;;;;15.13;9.03;;;;;;;6.81;31.78;101822.19;10169856;29;20669;-84
2022/04/28 06:32:53;;;;;;;16.07;10.20;;;;;;;6.43;31.60;101838.75;10165648;29;20205;-89
2022/04/28 06:38:20;;;;;;;20.80;10.33;;;;;;;6.29;31.78;101838.81;10155602;29;20673;-89
2022/04/28 06:43:22;;;;;;;16.23;9.83;;;;;;;6.73;31.56;101831.44;10167740;29;20256;-81
2022/04/28 06:48:43;;;;;;;16.07;9.00;;;;;;;6.88;31.40;101840.41;10172322;29;20193;-86
2022/04/28 06:54:03;;;;;;;17.20;10.00;;;;;;;6.44;31.95;101832.72;10173499;29;20208;-85
2022/04/28 06:59:08;;;;;;;13.63;9.87;;;;;;;6.63;32.53;101831.72;10161297;29;20204;-81
2022/04/28 07:04:16;;;;;;;16.50;10.13;;;;;;;6.92;31.57;101838.59;10169709;29;20533;-81
2022/04/28 07:09:18;;;;;;;12.07;8.80;;;;;;;7.17;31.11;101848.38;10157379;29;20263;-80
2022/04/28 07:14:20;;;;;;;19.17;10.03;;;;;;;7.53;30.30;101845.38;10209730;29;20625;-88
2022/04/28 07:19:41;;;;;;;17.07;9.07;;;;;;;6.46;32.20;101858.75;10182504;29;20649;-80
2022/04/28 07:24:43;;;;;;;14.23;9.50;;;;;;;7.43;30.90;101859.03;10190729;29;20256;-80
2022/04/28 07:29:47;;;;;;;14.67;9.03;;;;;;;6.08;32.38;101878.09;10173952;29;20200;-82
2022/04/28 07:34:56;;;;;;;15.37;9.27;;;;;;;7.61;30.68;101860.75;10188251;29;20274;-80
2022/04/28 07:40:17;;;;;;;12.67;8.57;;;;;;;7.28;31.07;101872.50;10183033;29;20229;-88
2022/04/28 07:45:27;;;;;;;12.60;8.37;;;;;;;7.66;29.89;101871.97;10173325;29;20217;-87
2022/04/28 07:50:32;;;;;;;16.43;9.43;;;;;;;7.39;30.81;101883.56;10164477;29;20252;-82
2022/04/28 07:55:43;;;;;;;16.37;9.03;;;;;;;8.81;28.67;101873.41;10165106;29;20217;-90
2022/04/28 08:00:46;;;;;;;13.80;8.53;;;;;;;8.48;29.67;101873.94;10180689;29;20196;-80
2022/04/28 08:05:48;;;;;;;11.00;7.90;;;;;;;9.42;28.09;101870.06;10172176;29;20204;-87
2022/04/28 08:10:50;;;;;;;18.93;8.90;;;;;;;8.96;28.86;101882.25;10183694;29;20240;-85
2022/04/28 08:15:54;;;;;;;13.17;9.63;;;;;;;8.81;28.96;101894.19;10162328;29;20315;-81
2022/04/28 08:21:01;;;;;;;13.90;9.20;;;;;;;8.65;29.34;101892.97;10168892;29;20292;-81
2022/04/28 08:26:04;;;;;;;16.67;9.67;;;;;;;8.94;28.91;101889.47;10164448;29;20221;-83
2022/04/28 08:31:07;;;;;;;14.43;9.37;;;;;;;9.60;28.19;101884.22;10148410;29;20197;-81
2022/04/28 08:36:09;;;;;;;16.20;9.20;;;;;;;10.11;28.55;101888.81;10164269;29;20281;-80
2022/04/28 08:41:20;;;;;;;13.67;9.10;;;;;;;9.57;28.55;101890.59;10163528;29;20221;-82
2022/04/28 08:46:52;;;;;;;14.17;9.93;;;;;;;9.41;29.32;101896.88;10168877;29;20185;-83
2022/04/28 08:52:00;;;;;;;15.33;9.73;;;;;;;9.65;29.11;101898.28;10165698;29;20196;-80
2022/04/28 08:57:02;;;;;;;14.00;9.60;;;;;;;10.36;28.02;101890.63;10162649;29;20473;-81
2022/04/28 09:02:05;;;;;;;17.83;8.87;;;;;;;10.59;26.65;101905.38;10162854;29;20217;-81
2022/04/28 09:07:37;;;;;;;16.93;9.30;;;;;;;10.46;27.25;101900.81;10165918;29;20646;-81
2022/04/28 09:18:40;;;;;;;15.93;9.30;;;;;;;10.62;27.40;101910.38;10166115;29;20311;-85
2022/04/28 09:23:43;;;;;;;19.37;10.20;;;;;;;8.52;29.44;101906.22;10162193;29;20653;-89
2022/04/28 09:28:46;;;;;;;14.93;10.13;;;;;;;9.68;28.30;101898.44;10161596;29;20229;-81
2022/04/28 09:33:49;;;;;;;21.23;11.13;;;;;;;10.31;27.89;101888.00;10162079;29;20573;-82
2022/04/28 09:39:00;;;;;;;14.63;10.20;;;;;;;11.76;25.95;101880.22;10161411;29;20618;-81
2022/04/28 09:44:03;;;;;;;16.90;10.60;;;;;;;8.54;29.59;101886.81;10160947;29;20224;-81
2022/04/28 09:49:12;;;;;;;15.20;11.17;;;;;;;10.77;27.14;101884.03;10161374;29;20192;-81
2022/04/28 09:54:36;;;;;;;18.37;12.00;;;;;;;11.31;26.36;101871.72;10178997;29;20196;-80
2022/04/28 09:59:41;;;;;;;16.93;10.60;;;;;;;11.50;26.10;101872.03;10162076;29;20634;-81
2022/04/28 10:04:45;;;;;;;15.23;12.07;;;;;;;11.72;25.73;101864.97;10163151;29;20539;-81
2022/04/28 10:10:05;;;;;;;17.97;11.57;;;;;;;10.65;26.25;101869.72;10155821;29;20200;-80
2022/04/28 10:15:09;;;;;;;14.90;10.63;;;;;;;9.91;26.23;101861.94;10153635;29;20275;-86
2022/04/28 10:20:16;;;;;;;17.27;12.03;;;;;;;10.66;25.79;101864.84;10152766;29;20228;-81
2022/04/28 10:36:49;;;;;;;18.30;12.32;;;;;;;12.90;24.09;101844.53;10184975;29;20212;-81
2022/04/28 10:41:51;;;;;;;16.93;11.90;;;;;;;11.82;24.06;101856.75;10164267;29;20268;-81
2022/04/28 10:47:05;;;;;;;14.80;10.48;;;;;;;10.67;25.76;101867.34;10195296;29;20201;-81
2022/04/28 10:52:21;;;;;;;15.38;10.85;;;;;;;11.28;24.64;101866.72;10195462;29;20219;-81
2022/04/28 10:57:29;;;;;;;14.63;9.68;;;;;;;12.40;23.27;101854.50;10207063;29;20215;-81
2022/04/28 11:02:35;;;;;;;10.82;9.75;;;;;;;10.62;25.33;101863.88;10178524;29;20197;-81
2022/04/28 11:07:45;;;;;;;14.93;9.97;;;;;;;12.06;23.95;101855.91;10182593;29;20188;-81
2022/04/28 11:12:47;;;;;;;12.90;9.00;;;;;;;12.27;23.74;101855.75;10170133;29;20232;-81
2022/04/28 11:17:50;;;;;;;14.90;9.80;;;;;;;12.23;23.37;101861.34;10176853;29;20224;-81
2022/04/28 11:22:52;;;;;;;17.20;10.25;;;;;;;12.62;23.44;101850.22;10160950;29;20506;-81
2022/04/28 11:27:56;;;;;;;13.55;8.88;;;;;;;10.88;24.40;101863.66;10145590;29;20209;-81
2022/04/28 11:32:59;;;;;;;14.37;9.30;;;;;;;12.61;24.05;101837.13;10170236;29;20204;-80
2022/04/28 11:38:02;;;;;;;11.52;8.68;;;;;;;12.32;23.00;101840.34;10142009;29;20693;-87
2022/04/28 11:43:05;;;;;;;10.23;7.95;;;;;;;12.81;22.35;101830.34;10179277;29;20224;-83
2022/04/28 11:48:07;;;;;;;13.20;7.80;;;;;;;13.12;22.31;101837.31;10182555;29;20196;-81
2022/04/28 11:53:12;;;;;;;16.60;9.52;;;;;;;11.65;23.64;101827.56;10162044;29;20200;-81
2022/04/28 11:58:16;;;;;;;12.83;8.33;;;;;;;12.67;22.69;101829.13;10174923;29;20217;-87
2022/04/28 12:03:27;;;;;;;12.90;8.83;;;;;;;12.48;24.40;101833.47;10156046;29;20200;-82
2022/04/28 12:08:29;;;;;;;13.75;8.23;;;;;;;12.74;22.81;101833.03;10176547;29;20259;-88
2022/04/28 12:19:29;;;;;;;12.13;8.25;;;;;;;12.37;22.67;101822.91;10190231;29;20236;-79
2022/04/28 12:24:33;;;;;;;11.23;8.60;;;;;;;13.75;20.89;101817.25;10159226;29;20205;-81
2022/04/28 12:29:54;;;;;;;11.25;8.63;;;;;;;12.91;22.37;101829.84;10157045;29;20201;-80
2022/04/28 12:35:03;;;;;;;9.77;8.15;;;;;;;12.83;22.29;101827.97;10162446;29;20578;-81
2022/04/28 12:40:05;;;;;;;11.07;9.10;;;;;;;12.76;22.41;101827.78;10183979;29;20215;-81
2022/04/28 12:45:08;;;;;;;11.15;8.15;;;;;;;13.43;22.15;101822.22;10184761;29;20605;-80
2022/04/28 12:50:24;;;;;;;11.60;8.80;;;;;;;14.79;20.46;101822.03;10183047;29;20197;-80
2022/04/28 12:55:34;;;;;;;12.15;9.05;;;;;;;12.73;21.31;101828.50;10154646;29;20329;-80
2022/04/28 13:00:38;;;;;;;15.55;10.10;;;;;;;12.88;21.40;101824.84;10178357;29;20271;-81
2022/04/28 13:05:40;;;;;;;13.45;9.38;;;;;;;14.45;19.69;101811.47;10156495;29;20506;-84
2022/04/28 13:10:43;;;;;;;17.90;10.30;;;;;;;12.71;22.60;101819.44;10157208;29;20257;-87
2022/04/28 13:15:45;;;;;;;15.25;9.65;;;;;;;14.36;20.01;101812.50;10165644;29;20669;-86
2022/04/28 13:20:48;;;;;;;14.48;10.05;;;;;;;13.42;21.77;101798.44;10160446;29;20276;-82
2022/04/28 13:25:50;;;;;;;17.02;11.43;;;;;;;14.50;21.16;101794.78;10167688;29;20193;-91
2022/04/28 13:30:53;;;;;;;15.33;11.00;;;;;;;13.70;21.91;101791.75;10164809;29;20204;-80
2022/04/28 13:35:55;;;;;;;17.88;11.18;;;;;;;14.25;21.15;101777.00;10191771;29;20344;-80
2022/04/28 13:40:57;;;;;;;19.50;10.80;;;;;;;15.35;20.52;101766.81;10200824;29;20204;-81
2022/04/28 13:46:01;;;;;;;15.20;10.70;;;;;;;13.38;22.22;101766.00;10156391;29;20188;-80
2022/04/28 13:51:05;;;;;;;13.57;10.65;;;;;;;12.53;22.59;101778.00;10161301;29;20224;-80
2022/04/28 13:56:07;;;;;;;16.08;11.60;;;;;;;13.58;23.12;101770.56;10153491;29;20215;-81
2022/04/28 14:01:10;;;;;;;17.88;10.07;;;;;;;14.57;20.98;101769.09;10157018;29;20594;-80
2022/04/28 14:06:13;;;;;;;13.55;9.35;;;;;;;13.34;21.55;101762.19;10178537;29;20248;-80
2022/04/28 14:11:15;;;;;;;13.73;10.00;;;;;;;13.54;21.79;101749.59;10162167;29;20263;-81
2022/04/28 14:16:17;;;;;;;17.50;9.77;;;;;;;15.53;20.15;101741.22;10161974;29;20312;-81
2022/04/28 14:21:19;;;;;;;14.57;8.95;;;;;;;14.97;20.96;101748.50;10175849;29;20224;-81
2022/04/28 14:26:21;;;;;;;17.15;10.40;;;;;;;15.33;21.16;101737.59;10193180;29;20537;-83
2022/04/28 14:31:23;;;;;;;15.85;10.02;;;;;;;12.89;22.29;101740.59;10174264;29;20204;-81
2022/04/28 14:36:47;;;;;;;12.32;9.68;;;;;;;14.45;20.93;101731.91;10160561;29;20502;-81
2022/04/28 14:41:50;;;;;;;14.20;9.32;;;;;;;13.72;21.37;101734.81;10159382;29;20228;-84
2022/04/28 14:47:12;;;;;;;11.85;8.55;;;;;;;14.08;22.13;101728.72;10157124;29;20259;-85
2022/04/28 14:52:20;;;;;;;16.05;9.32;;;;;;;14.08;21.24;101722.97;10163594;29;20491;-82
2022/04/28 14:57:44;;;;;;;10.27;8.57;;;;;;;11.34;24.39;101731.88;10180603;29;20268;-88
2022/04/28 15:02:47;;;;;;;14.75;8.63;;;;;;;14.26;20.99;101732.75;10154215;29;20554;-82
2022/04/28 15:07:50;;;;;;;13.35;8.65;;;;;;;14.67;20.76;101727.41;10170772;29;20252;-88
2022/04/28 15:12:54;;;;;;;15.30;8.50;;;;;;;14.30;20.84;101732.81;10168554;29;20216;-85
2022/04/28 15:17:56;;;;;;;24.00;11.97;;;;;;;12.83;22.48;101736.31;10179831;29;20225;-80
2022/04/28 15:22:58;;;;;;;13.30;7.93;;;;;;;13.33;22.51;101726.13;10162222;29;20268;-82
2022/04/28 15:28:00;;;;;;;14.17;8.40;;;;;;;13.80;21.80;101722.31;10164717;29;20244;-82
2022/04/28 15:33:02;;;;;;;16.27;9.90;;;;;;;13.74;22.31;101723.81;10181342;29;20225;-83
2022/04/28 15:38:05;;;;;;;11.18;7.65;;;;;;;14.10;21.49;101723.38;10158024;29;20707;-82
2022/04/28 15:43:07;;;;;;;12.63;7.38;;;;;;;14.28;21.49;101718.84;10142898;29;20236;-83
2022/04/28 15:48:09;;;;;;;12.35;7.78;;;;;;;13.04;22.24;101713.16;10162940;29;20232;-83
2022/04/28 15:53:12;;;;;;;13.05;7.60;;;;;;;14.68;21.41;101711.84;10179415;29;20240;-83
2022/04/28 15:58:14;;;;;;;14.70;7.63;;;;;;;13.97;21.05;101719.84;10146471;29;20244;-83
2022/04/28 16:03:16;;;;;;;11.38;7.00;;;;;;;13.77;21.48;101712.44;10143396;29;20536;-81
2022/04/28 16:08:19;;;;;;;9.88;6.35;;;;;;;14.47;21.41;101709.44;10152898;29;20232;-82
2022/04/28 16:13:21;;;;;;;11.88;7.57;;;;;;;13.70;21.99;101717.19;10198547;29;20205;-82
2022/04/28 16:18:23;;;;;;;9.52;6.82;;;;;;;12.78;22.53;101710.84;10153720;29;20673;-82
2022/04/28 16:23:26;;;;;;;11.27;6.43;;;;;;;11.87;23.61;101721.31;10173905;29;20203;-83
2022/04/28 16:28:28;;;;;;;9.93;6.47;;;;;;;13.68;21.87;101719.59;10164694;29;20266;-82
2022/04/28 16:33:30;;;;;;;13.48;6.30;;;;;;;13.43;21.61;101719.84;10165840;29;20340;-83
2022/04/28 16:38:32;;;;;;;9.00;5.70;;;;;;;14.00;21.21;101724.00;10156359;29;20256;-83
2022/04/28 16:43:35;;;;;;;10.32;5.88;;;;;;;13.11;21.95;101727.63;10164328;29;20199;-82
2022/04/28 16:48:37;;;;;;;13.63;5.33;;;;;;;15.27;19.98;101716.97;10162089;29;20220;-81
2022/04/28 16:53:42;;;;;;;8.82;5.63;;;;;;;14.09;21.21;101724.63;10186061;29;20613;-84
2022/04/28 16:58:46;;;;;;;11.35;5.45;;;;;;;13.64;21.71;101726.06;10164338;29;20251;-82
2022/04/28 17:09:09;;;;;;;8.77;4.55;;;;;;;14.03;21.80;101720.38;10162823;29;20200;-81
2022/04/28 17:14:13;;;;;;;7.35;5.07;;;;;;;13.94;21.54;101711.19;10150587;29;20231;-83
2022/04/28 17:19:16;;;;;;;7.97;4.37;;;;;;;13.34;21.87;101722.06;10168935;29;20260;-84
2022/04/28 17:24:19;;;;;;;8.05;4.40;;;;;;;14.03;21.19;101729.00;10142558;29;20220;-82
2022/04/28 17:29:24;;;;;;;8.23;5.10;;;;;;;12.76;22.44;101730.41;10157778;29;20230;-85
2022/04/28 17:34:28;;;;;;;11.10;4.37;;;;;;;12.80;22.15;101736.25;10142507;29;20233;-82
2022/04/28 17:39:30;;;;;;;6.47;3.67;;;;;;;12.23;23.29;101749.78;10182028;29;20697;-82
2022/04/28 17:44:33;;;;;;;11.17;3.80;;;;;;;13.89;20.78;101743.03;10137208;29;20463;-83
2022/04/28 17:49:36;;;;;;;8.63;3.75;;;;;;;12.26;23.86;101739.63;10152569;29;20255;-84
2022/04/28 17:54:40;;;;;;;7.22;3.80;;;;;;;11.80;23.16;101733.34;10163412;29;20625;-84
2022/04/28 17:59:52;;;;;;;11.73;6.80;;;;;;;13.20;22.67;101733.16;10147772;29;20319;-90
2022/04/28 18:04:57;;;;;;;5.73;3.60;;;;;;;12.57;22.59;101744.56;10154079;29;20673;-88
2022/04/28 18:09:59;;;;;;;6.78;3.58;;;;;;;12.97;21.72;101747.31;10162417;29;20196;-86
2022/04/28 18:15:05;;;;;;;5.57;2.90;;;;;;;12.62;22.88;101758.63;10164533;29;20278;-86
2022/04/28 18:20:07;;;;;;;6.82;3.70;;;;;;;12.88;23.13;101756.09;10174278;29;20637;-83
2022/04/28 18:25:10;;;;;;;6.23;2.83;;;;;;;13.03;22.53;101756.47;10165197;29;20673;-87
2022/04/28 18:30:12;;;;;;;9.70;3.83;;;;;;;12.66;23.88;101759.56;10153860;29;20201;-88
2022/04/28 18:35:15;;;;;;;9.07;3.30;;;;;;;12.73;23.71;101761.81;10133660;29;20209;-85
2022/04/28 18:45:39;;;;;;;6.87;3.77;;;;;;;12.32;24.90;101777.38;10174847;29;20236;-87
2022/04/28 18:50:42;;;;;;;5.77;3.30;;;;;;;12.53;24.72;101772.28;10163029;29;20222;-87
2022/04/28 18:55:44;;;;;;;10.90;3.53;;;;;;;11.88;25.39;101780.16;10151514;29;20201;-88
2022/04/28 19:00:47;;;;;;;8.63;3.10;;;;;;;12.05;24.87;101790.44;10151254;29;20256;-89
2022/04/28 19:05:49;;;;;;;10.97;3.27;;;;;;;12.27;24.66;101786.25;10152909;29;20206;-88
2022/04/28 19:10:52;;;;;;;5.72;3.13;;;;;;;11.95;25.48;101786.06;10160174;29;20197;-88
2022/04/28 19:15:54;;;;;;;9.03;3.40;;;;;;;11.60;25.64;101790.69;10156876;29;20234;-87
2022/04/28 19:20:58;;;;;;;9.57;3.13;;;;;;;11.84;25.55;101802.06;10164071;29;20253;-88
2022/04/28 19:26:00;;;;;;;8.45;3.45;;;;;;;11.59;25.92;101809.00;10152306;29;20201;-88
2022/04/28 19:31:02;;;;;;;7.43;3.17;;;;;;;11.60;26.29;101810.69;10143690;29;20264;-87
2022/04/28 19:36:05;;;;;;;11.63;3.97;;;;;;;11.21;26.15;101810.19;10149383;29;20265;-86
2022/04/28 19:41:07;;;;;;;6.47;3.13;;;;;;;11.46;26.13;101814.75;10147281;29;20519;-88
2022/04/28 19:46:09;;;;;;;11.30;3.92;;;;;;;11.12;26.29;101829.44;10142401;29;20733;-88
2022/04/28 19:51:11;;;;;;;8.83;3.90;;;;;;;11.22;26.27;101834.69;10143127;29;20223;-87
2022/04/28 19:56:14;;;;;;;11.03;4.77;;;;;;;10.68;27.38;101840.50;10146663;29;20599;-86
2022/04/28 20:01:16;;;;;;;12.10;4.90;;;;;;;10.71;27.25;101834.09;10139219;29;20321;-87
2022/04/28 20:06:18;;;;;;;11.67;4.63;;;;;;;11.10;26.77;101828.97;10138610;29;20202;-86
2022/04/28 20:11:21;;;;;;;10.47;5.90;;;;;;;11.17;26.87;101829.22;10157971;29;20210;-87
2022/04/28 20:16:24;;;;;;;12.23;7.10;;;;;;;11.02;26.82;101824.19;10156108;29;20204;-83
2022/04/28 20:21:27;;;;;;;15.30;8.47;;;;;;;10.88;26.54;101829.38;10139966;29;20288;-87
2022/04/28 20:26:29;;;;;;;14.13;10.53;;;;;;;10.91;26.81;101831.53;10138642;29;20233;-83
2022/04/28 20:31:32;;;;;;;18.53;12.77;;;;;;;10.25;27.59;101826.63;10149177;29;20185;-87
2022/04/28 20:36:35;;;;;;;17.67;10.20;;;;;;;10.41;27.26;101830.53;10155361;29;20280;-87
2022/04/28 20:41:37;;;;;;;16.73;9.23;;;;;;;10.29;27.71;101826.78;10140219;29;20277;-87
2022/04/28 20:46:39;;;;;;;13.27;8.20;;;;;;;10.37;27.56;101835.25;10155244;29;20205;-83
2022/04/28 20:52:01;;;;;;;14.20;8.27;;;;;;;10.54;27.59;101834.25;10156410;29;20196;-87
2022/04/28 20:57:04;;;;;;;12.07;8.03;;;;;;;9.91;28.70;101829.75;10164475;29;20455;-81
2022/04/28 21:02:07;;;;;;;14.27;7.33;;;;;;;10.08;28.39;101838.13;10139104;29;20224;-82
2022/04/28 21:07:10;;;;;;;9.47;7.23;;;;;;;10.17;28.39;101829.56;10178226;29;20676;-86
2022/04/28 21:12:13;;;;;;;12.07;7.50;;;;;;;10.30;27.92;101839.84;10178461;29;20244;-82
2022/04/28 21:17:15;;;;;;;14.40;6.93;;;;;;;10.01;28.57;101838.72;10181140;29;20569;-82
2022/04/28 21:22:17;;;;;;;11.17;6.33;;;;;;;9.69;29.55;101833.72;10179337;29;20354;-85
2022/04/28 21:27:20;;;;;;;12.23;6.33;;;;;;;10.05;28.74;101838.84;10173187;29;20204;-84
2022/04/28 21:32:25;;;;;;;12.33;6.50;;;;;;;9.59;29.26;101831.28;10201959;29;20204;-87
2022/04/28 21:37:30;;;;;;;10.77;7.00;;;;;;;10.02;28.53;101833.84;10186798;29;20258;-87
2022/04/28 21:42:32;;;;;;;10.30;6.30;;;;;;;8.48;30.34;101836.97;10193150;29;20275;-86
2022/04/28 21:47:35;;;;;;;9.87;7.37;;;;;;;8.51;30.69;101844.84;10192823;29;20593;-85
2022/04/28 21:52:39;;;;;;;13.90;7.63;;;;;;;8.51;30.67;101838.31;10200791;29;20477;-82
2022/04/28 21:57:41;;;;;;;11.20;7.27;;;;;;;8.76;30.77;101822.41;10204208;29;20493;-83
2022/04/28 22:02:43;;;;;;;12.10;7.30;;;;;;;9.03;30.18;101825.66;10206241;29;20216;-83
2022/04/28 22:13:06;;;;;;;12.67;8.13;;;;;;;8.76;30.50;101837.47;10225874;29;20239;-81
2022/04/28 22:18:08;;;;;;;13.00;7.90;;;;;;;8.80;30.05;101826.22;10207981;29;20235;-86
2022/04/28 22:23:10;;;;;;;13.33;8.07;;;;;;;8.85;30.65;101834.59;10208053;29;20663;-86
2022/04/28 22:28:12;;;;;;;16.90;8.33;;;;;;;9.07;30.76;101835.19;10207952;29;20554;-86
2022/04/28 22:33:16;;;;;;;13.87;8.07;;;;;;;8.24;31.65;101839.50;10208073;29;20195;-85
2022/04/28 22:38:19;;;;;;;10.90;7.60;;;;;;;8.02;31.98;101840.47;10208678;29;20735;-84
2022/04/28 22:43:21;;;;;;;13.50;9.07;;;;;;;9.05;30.68;101842.38;10192776;29;20205;-85
2022/04/28 22:48:23;;;;;;;13.27;7.83;;;;;;;9.38;29.51;101832.03;10204606;29;20276;-83
2022/04/28 22:53:26;;;;;;;11.33;8.10;;;;;;;9.23;30.62;101823.22;10206753;29;20247;-85
2022/04/28 22:58:37;;;;;;;15.13;8.40;;;;;;;8.73;30.90;101838.13;10223480;29;20232;-86
2022/04/28 23:03:40;;;;;;;10.43;8.27;;;;;;;9.34;30.11;101830.22;10190628;29;20199;-85
2022/04/28 23:08:42;;;;;;;11.83;7.97;;;;;;;8.75;31.47;101823.56;10206231;29;20279;-82
2022/04/28 23:13:45;;;;;;;14.80;7.97;;;;;;;9.00;30.59;101817.81;10206243;29;20219;-81
2022/04/28 23:18:47;;;;;;;12.47;8.97;;;;;;;8.86;30.59;101827.72;10205686;29;20227;-83
2022/04/28 23:23:49;;;;;;;11.80;7.80;;;;;;;9.22;30.39;101821.56;10205698;29;20243;-81
2022/04/28 23:28:52;;;;;;;13.17;8.33;;;;;;;8.59;31.64;101829.75;10205772;29;20478;-82
2022/04/28 23:38:21;;;;;;;13.03;8.63;;;;;;;9.20;30.27;101832.44;10205145;29;20196;-86
2022/04/28 23:39:17;;;;;;;13.03;9.10;;;;;;;8.75;31.28;101832.13;10192088;29;20283;-83
2022/04/28 23:44:19;;;;;;;15.27;8.77;;;;;;;8.70;31.70;101827.38;10205060;29;20239;-87
2022/04/28 23:49:21;;;;;;;12.03;8.23;;;;;;;8.77;31.60;101838.31;10204942;29;20228;-85
2022/04/28 23:59:44;;;;;;;11.10;8.70;;;;;;;9.07;31.21;101828.66;10190833;29;20219;-86
